createdAt,value
2018-10-06T00:01:40.068Z,24.80
2018-10-06T00:04:08.283Z,21.97
2018-10-06T00:06:36.664Z,21.50
2018-10-06T00:09:05.808Z,35.60
2018-10-06T00:11:34.188Z,26.20
2018-10-06T00:14:02.416Z,37.80
2018-10-06T00:16:30.739Z,22.63
2018-10-06T00:18:59.937Z,33.30
2018-10-06T00:21:28.214Z,30.00
2018-10-06T00:23:56.407Z,31.23
2018-10-06T00:26:24.688Z,32.10
2018-10-06T00:28:53.015Z,39.17
2018-10-06T00:31:21.300Z,24.50
2018-10-06T00:33:49.495Z,22.63
2018-10-06T00:36:17.890Z,43.07
2018-10-06T00:38:46.141Z,30.37
2018-10-06T00:41:14.488Z,26.70
2018-10-06T00:43:42.833Z,28.93
2018-10-06T00:46:11.452Z,19.63
2018-10-06T00:48:39.753Z,28.83
2018-10-06T00:51:08.109Z,21.57
2018-10-06T00:53:36.442Z,16.13
2018-10-06T00:56:04.712Z,20.13
2018-10-06T00:58:33.143Z,20.90
2018-10-06T01:01:01.425Z,36.50
2018-10-06T01:03:29.755Z,33.97
2018-10-06T01:05:58.098Z,37.67
2018-10-06T01:08:26.327Z,22.77
2018-10-06T01:10:54.613Z,18.30
2018-10-06T01:13:22.883Z,17.27
2018-10-06T01:15:51.102Z,17.03
2018-10-06T01:18:19.375Z,27.20
2018-10-06T01:20:47.615Z,25.50
2018-10-06T01:23:15.892Z,34.80
2018-10-06T01:25:44.193Z,23.93
2018-10-06T01:28:12.577Z,39.97
2018-10-06T01:30:40.811Z,29.63
2018-10-06T01:33:09.160Z,39.73
2018-10-06T01:35:37.555Z,33.17
2018-10-06T01:38:06.079Z,50.40
2018-10-06T01:40:34.418Z,21.07
2018-10-06T01:43:02.849Z,21.00
2018-10-06T01:45:31.054Z,20.37
2018-10-06T01:47:59.326Z,73.10
2018-10-06T01:50:27.680Z,41.03
2018-10-06T01:52:56.005Z,30.57
2018-10-06T01:55:24.305Z,20.70
2018-10-06T01:57:52.615Z,15.97
2018-10-06T02:00:20.894Z,22.60
2018-10-06T02:02:49.209Z,22.00
2018-10-06T02:05:17.512Z,29.73
2018-10-06T02:07:45.807Z,21.00
2018-10-06T02:10:14.117Z,21.80
2018-10-06T02:12:42.386Z,23.30
2018-10-06T02:15:11.699Z,17.03
2018-10-06T02:17:39.965Z,22.63
2018-10-06T02:20:08.296Z,20.43
2018-10-06T02:22:36.689Z,27.13
2018-10-06T02:25:05.886Z,16.50
2018-10-06T02:27:34.166Z,16.67
2018-10-06T02:30:02.530Z,19.43
2018-10-06T02:32:30.881Z,24.73
2018-10-06T02:34:59.173Z,21.80
2018-10-06T02:37:27.957Z,16.87
2018-10-06T02:39:57.370Z,18.00
2018-10-06T02:42:25.660Z,17.70
2018-10-06T02:44:53.875Z,17.07
2018-10-06T02:47:22.111Z,20.20
2018-10-06T02:49:50.604Z,16.50
2018-10-06T02:52:18.877Z,17.67
2018-10-06T02:54:47.119Z,15.10
2018-10-06T02:57:15.349Z,19.33
2018-10-06T02:59:43.579Z,14.27
2018-10-06T03:02:11.775Z,15.97
2018-10-06T03:04:40.074Z,22.20
2018-10-06T03:07:08.277Z,17.57
2018-10-06T03:09:36.542Z,15.70
2018-10-06T03:12:04.875Z,13.13
2018-10-06T03:14:33.173Z,17.80
2018-10-06T03:17:01.469Z,16.80
2018-10-06T03:19:29.824Z,19.07
2018-10-06T03:21:58.123Z,17.13
2018-10-06T03:24:26.414Z,18.40
2018-10-06T03:26:54.705Z,18.73
2018-10-06T03:29:23.015Z,20.37
2018-10-06T03:31:51.283Z,27.87
2018-10-06T03:34:19.620Z,22.27
2018-10-06T03:36:47.919Z,20.90
2018-10-06T03:39:16.341Z,17.17
2018-10-06T03:41:44.692Z,19.13
2018-10-06T03:44:13.020Z,18.73
2018-10-06T03:46:41.290Z,19.87
2018-10-06T03:49:10.220Z,16.07
2018-10-06T03:51:38.588Z,17.57
2018-10-06T03:54:08.269Z,16.30
2018-10-06T03:56:36.483Z,14.77
2018-10-06T03:59:04.716Z,12.87
2018-10-06T04:01:32.954Z,13.27
2018-10-06T04:04:01.193Z,13.97
2018-10-06T04:06:29.486Z,14.80
2018-10-06T04:08:58.429Z,11.63
2018-10-06T04:11:26.677Z,11.40
2018-10-06T04:13:54.952Z,13.27
2018-10-06T04:16:23.231Z,12.67
2018-10-06T04:18:51.628Z,15.53
2018-10-06T04:21:19.981Z,20.17
2018-10-06T04:23:49.187Z,33.90
2018-10-06T04:26:17.723Z,58.03
2018-10-06T04:28:46.023Z,21.20
2018-10-06T04:31:17.606Z,15.77
2018-10-06T04:33:46.095Z,12.67
2018-10-06T04:36:14.291Z,22.00
2018-10-06T04:38:42.711Z,26.60
2018-10-06T04:41:10.904Z,20.70
2018-10-06T04:43:39.209Z,17.83
2018-10-06T04:46:07.528Z,15.20
2018-10-06T04:48:35.906Z,15.77
2018-10-06T04:51:04.272Z,14.70
2018-10-06T04:53:32.690Z,11.43
2018-10-06T04:56:01.053Z,15.87
2018-10-06T04:58:29.285Z,13.60
2018-10-06T05:00:57.646Z,12.80
2018-10-06T05:03:25.901Z,8.40
2018-10-06T05:05:54.410Z,10.30
2018-10-06T05:08:22.683Z,18.00
2018-10-06T05:10:51.002Z,11.70
2018-10-06T05:13:19.234Z,13.60
2018-10-06T05:15:47.529Z,13.97
2018-10-06T05:18:15.840Z,12.53
2018-10-06T05:20:44.098Z,14.90
2018-10-06T05:23:12.307Z,16.77
2018-10-06T05:25:40.581Z,17.63
2018-10-06T05:28:09.930Z,18.47
2018-10-06T05:30:38.403Z,17.73
2018-10-06T05:33:06.782Z,34.37
2018-10-06T05:35:34.997Z,14.80
2018-10-06T05:38:03.307Z,33.57
2018-10-06T05:40:31.675Z,26.50
2018-10-06T05:42:59.883Z,43.97
2018-10-06T05:45:28.134Z,24.20
2018-10-06T05:47:56.435Z,34.43
2018-10-06T05:50:24.721Z,17.33
2018-10-06T05:52:52.995Z,20.97
2018-10-06T05:55:21.255Z,27.30
2018-10-06T05:57:49.687Z,21.70
2018-10-06T06:00:17.955Z,22.73
2018-10-06T06:02:46.249Z,33.47
2018-10-06T06:05:18.335Z,27.83
2018-10-06T06:07:47.133Z,25.50
2018-10-06T06:10:15.328Z,37.13
2018-10-06T06:12:43.529Z,19.10
2018-10-06T06:15:11.763Z,26.70
2018-10-06T06:17:40.453Z,19.37
2018-10-06T06:20:09.927Z,17.50
2018-10-06T06:22:45.297Z,13.80
2018-10-06T06:25:14.145Z,18.37
2018-10-06T06:27:42.462Z,12.30
2018-10-06T06:30:11.014Z,18.10
2018-10-06T06:32:39.267Z,23.83
2018-10-06T06:35:07.528Z,25.70
2018-10-06T06:37:35.791Z,23.17
2018-10-06T06:40:04.087Z,22.00
2018-10-06T06:42:32.514Z,18.27
2018-10-06T06:45:00.743Z,14.03
2018-10-06T06:47:29.053Z,20.23
2018-10-06T06:49:57.375Z,15.70
2018-10-06T06:52:25.697Z,13.13
2018-10-06T06:54:53.988Z,14.10
2018-10-06T06:57:22.254Z,13.33
2018-10-06T06:59:50.500Z,14.00
2018-10-06T07:02:18.711Z,10.77
2018-10-06T07:04:46.956Z,12.00
2018-10-06T07:07:15.255Z,13.03
2018-10-06T07:09:43.494Z,13.00
2018-10-06T07:12:11.972Z,17.10
2018-10-06T07:14:40.215Z,12.17
2018-10-06T07:17:08.465Z,13.03
2018-10-06T07:19:36.831Z,14.10
2018-10-06T07:22:05.131Z,11.43
2018-10-06T07:24:33.509Z,10.57
2018-10-06T07:27:01.889Z,12.97
2018-10-06T07:29:30.273Z,11.57
2018-10-06T07:31:58.670Z,10.83
2018-10-06T07:34:27.186Z,12.90
2018-10-06T07:36:55.636Z,12.03
2018-10-06T07:39:23.857Z,16.40
2018-10-06T07:41:52.204Z,9.60
2018-10-06T07:44:20.557Z,15.07
2018-10-06T07:46:53.579Z,9.67
2018-10-06T07:49:22.017Z,10.90
2018-10-06T07:51:50.369Z,12.27
2018-10-06T07:54:18.590Z,13.60
2018-10-06T07:56:47.003Z,15.20
2018-10-06T07:59:15.449Z,12.63
2018-10-06T08:01:43.709Z,9.50
2018-10-06T08:04:12.022Z,13.13
2018-10-06T08:06:40.299Z,10.43
2018-10-06T08:09:09.215Z,11.77
2018-10-06T08:11:38.019Z,10.93
2018-10-06T08:14:06.254Z,11.47
2018-10-06T08:16:34.535Z,12.70
2018-10-06T08:19:03.036Z,15.67
2018-10-06T08:21:31.384Z,11.97
2018-10-06T08:23:59.844Z,10.73
2018-10-06T08:26:28.214Z,9.50
2018-10-06T08:28:56.629Z,11.97
2018-10-06T08:31:24.909Z,10.23
2018-10-06T08:33:53.269Z,15.70
2018-10-06T08:36:21.524Z,11.23
2018-10-06T08:38:49.821Z,11.03
2018-10-06T08:41:18.434Z,10.77
2018-10-06T08:43:46.872Z,15.93
2018-10-06T08:46:15.232Z,14.77
2018-10-06T08:48:43.594Z,14.00
2018-10-06T08:51:11.887Z,11.60
2018-10-06T08:53:40.222Z,15.23
2018-10-06T08:56:08.700Z,14.77
2018-10-06T08:58:36.881Z,11.63
2018-10-06T09:01:05.607Z,11.33
2018-10-06T09:03:33.934Z,14.23
2018-10-06T09:06:02.346Z,10.70
2018-10-06T09:08:30.680Z,14.60
2018-10-06T09:10:59.486Z,12.20
2018-10-06T09:13:27.802Z,11.07
2018-10-06T09:15:56.303Z,10.30
2018-10-06T09:18:26.673Z,9.13
2018-10-06T09:20:55.046Z,13.53
2018-10-06T09:23:29.393Z,11.00
2018-10-06T09:25:58.346Z,7.67
2018-10-06T09:28:26.893Z,9.73
2018-10-06T09:30:55.071Z,12.00
2018-10-06T09:33:24.087Z,12.23
2018-10-06T09:35:52.757Z,11.93
2018-10-06T09:38:21.177Z,10.50
2018-10-06T09:40:50.078Z,15.13
2018-10-06T09:43:18.787Z,14.47
2018-10-06T09:45:53.905Z,9.80
2018-10-06T09:48:27.160Z,9.93
2018-10-06T09:50:59.761Z,11.97
2018-10-06T09:53:28.220Z,16.17
2018-10-06T09:56:00.142Z,20.40
2018-10-06T09:58:28.813Z,13.37
2018-10-06T10:01:01.921Z,10.57
2018-10-06T10:03:34.593Z,11.47
2018-10-06T10:06:03.631Z,12.00
2018-10-06T10:08:32.400Z,11.53
2018-10-06T10:11:01.865Z,10.47
2018-10-06T10:13:31.080Z,12.00
2018-10-06T10:16:11.784Z,9.87
2018-10-06T10:18:40.660Z,12.67
2018-10-06T10:21:09.024Z,11.10
2018-10-06T10:23:37.523Z,15.30
2018-10-06T10:26:06.153Z,11.33
2018-10-06T10:28:34.661Z,10.53
2018-10-06T10:31:04.036Z,9.13
2018-10-06T10:33:41.381Z,8.37
2018-10-06T10:36:11.544Z,11.67
2018-10-06T10:38:43.533Z,9.33
2018-10-06T10:41:17.153Z,8.67
2018-10-06T10:43:49.502Z,11.07
2018-10-06T10:46:21.441Z,14.47
2018-10-06T10:48:50.790Z,11.60
2018-10-06T10:51:19.893Z,10.33
2018-10-06T10:53:50.357Z,10.67
2018-10-06T10:56:19.061Z,15.47
2018-10-06T10:58:47.750Z,11.73
2018-10-06T11:01:16.237Z,9.97
2018-10-06T11:03:44.916Z,9.60
2018-10-06T11:06:13.591Z,9.53
2018-10-06T11:08:42.011Z,8.50
2018-10-06T11:11:10.614Z,8.60
2018-10-06T11:13:39.533Z,9.47
2018-10-06T11:16:07.816Z,7.73
2018-10-06T11:18:36.161Z,7.93
2018-10-06T11:21:05.360Z,9.13
2018-10-06T11:23:33.933Z,11.17
2018-10-06T11:26:05.937Z,11.57
2018-10-06T11:28:34.380Z,8.40
2018-10-06T11:31:02.814Z,8.50
2018-10-06T11:33:31.341Z,14.17
2018-10-06T11:35:59.781Z,10.73
2018-10-06T11:38:28.116Z,8.23
2018-10-06T11:40:56.686Z,7.63
2018-10-06T11:43:25.112Z,8.80
2018-10-06T11:45:53.520Z,12.40
2018-10-06T11:48:25.113Z,23.37
2018-10-06T11:50:53.613Z,12.43
2018-10-06T11:53:22.213Z,12.73
2018-10-06T11:55:50.761Z,11.53
2018-10-06T11:58:19.760Z,9.20
2018-10-06T12:00:48.322Z,13.93
2018-10-06T12:03:16.680Z,12.23
2018-10-06T12:05:45.512Z,10.13
2018-10-06T12:08:15.145Z,9.53
2018-10-06T12:10:43.731Z,8.77
2018-10-06T12:13:16.761Z,7.37
2018-10-06T12:15:46.653Z,13.73
2018-10-06T12:18:15.013Z,8.03
2018-10-06T12:20:43.373Z,12.87
2018-10-06T12:23:11.913Z,13.50
2018-10-06T12:25:41.041Z,9.97
2018-10-06T12:28:09.630Z,10.67
2018-10-06T12:30:38.106Z,8.37
2018-10-06T12:33:06.497Z,11.83
2018-10-06T12:35:35.055Z,9.47
2018-10-06T12:38:03.561Z,12.67
2018-10-06T12:40:31.960Z,11.83
2018-10-06T12:43:00.433Z,7.43
2018-10-06T12:45:29.894Z,7.20
2018-10-06T12:47:58.610Z,11.67
2018-10-06T12:53:00.461Z,8.20
2018-10-06T12:55:28.781Z,13.87
2018-10-06T12:57:57.053Z,8.93
2018-10-06T13:00:25.741Z,9.03
2018-10-06T13:02:54.181Z,11.07
2018-10-06T13:05:22.781Z,13.70
2018-10-06T13:07:57.565Z,10.77
2018-10-06T13:10:26.271Z,12.73
2018-10-06T13:12:55.660Z,13.57
2018-10-06T13:15:24.873Z,14.47
2018-10-06T13:17:57.001Z,9.37
2018-10-06T13:20:25.520Z,34.73
2018-10-06T13:22:54.289Z,12.10
2018-10-06T13:25:22.701Z,39.30
2018-10-06T13:27:51.062Z,8.63
2018-10-06T13:30:19.411Z,13.93
2018-10-06T13:32:47.778Z,11.67
2018-10-06T13:35:16.194Z,15.40
2018-10-06T13:37:44.713Z,13.53
2018-10-06T13:40:13.161Z,15.77
2018-10-06T13:42:43.084Z,8.03
2018-10-06T13:45:13.472Z,9.20
2018-10-06T13:47:46.093Z,9.10
2018-10-06T13:50:15.072Z,9.90
2018-10-06T13:52:43.793Z,10.10
2018-10-06T13:55:12.601Z,12.47
2018-10-06T13:57:41.094Z,9.90
2018-10-06T14:00:09.665Z,7.87
2018-10-06T14:02:38.079Z,10.20
2018-10-06T14:05:06.829Z,9.47
2018-10-06T14:07:35.613Z,9.17
2018-10-06T14:10:04.461Z,9.03
2018-10-06T14:12:33.465Z,8.67
2018-10-06T14:15:03.080Z,9.87
2018-10-06T14:17:31.416Z,10.13
2018-10-06T14:19:59.812Z,9.70
2018-10-06T14:22:28.612Z,11.53
2018-10-06T14:24:57.060Z,17.63
2018-10-06T14:27:25.453Z,11.60
2018-10-06T14:29:54.133Z,10.03
2018-10-06T14:32:22.543Z,10.83
2018-10-06T14:34:50.910Z,15.60
2018-10-06T14:37:19.843Z,9.37
2018-10-06T14:39:48.521Z,10.47
2018-10-06T14:42:17.081Z,12.50
2018-10-06T14:44:45.562Z,13.67
2018-10-06T14:47:14.023Z,10.70
2018-10-06T14:49:42.481Z,11.13
2018-10-06T14:52:11.010Z,15.67
2018-10-06T14:54:39.472Z,11.23
2018-10-06T14:57:07.960Z,18.03
2018-10-06T14:59:36.429Z,19.77
2018-10-06T15:02:04.839Z,10.10
2018-10-06T15:04:33.332Z,11.97
2018-10-06T15:07:01.819Z,12.30
2018-10-06T15:09:30.114Z,11.10
2018-10-06T15:11:58.919Z,59.80
2018-10-06T15:14:27.440Z,19.80
2018-10-06T15:16:55.697Z,13.40
2018-10-06T15:19:23.971Z,13.77
2018-10-06T15:21:52.457Z,18.90
2018-10-06T15:24:20.784Z,24.60
2018-10-06T15:26:49.126Z,10.93
2018-10-06T15:29:17.472Z,11.90
2018-10-06T15:31:45.817Z,12.80
2018-10-06T15:34:14.029Z,11.87
2018-10-06T15:36:42.576Z,11.97
2018-10-06T15:39:10.746Z,14.33
2018-10-06T15:41:39.382Z,14.07
2018-10-06T15:44:07.887Z,13.63
2018-10-06T15:46:36.213Z,12.83
2018-10-06T15:49:04.557Z,12.83
2018-10-06T15:51:32.993Z,13.43
2018-10-06T15:54:01.257Z,15.10
2018-10-06T15:56:29.528Z,17.83
2018-10-06T15:58:57.806Z,14.47
2018-10-06T16:01:26.067Z,21.27
2018-10-06T16:03:54.367Z,24.93
2018-10-06T16:06:22.775Z,19.40
2018-10-06T16:08:54.352Z,16.63
2018-10-06T16:11:22.763Z,20.03
2018-10-06T16:13:51.146Z,17.37
2018-10-06T16:16:19.414Z,17.37
2018-10-06T16:18:47.674Z,17.53
2018-10-06T16:21:16.084Z,17.67
2018-10-06T16:23:44.451Z,19.03
2018-10-06T16:26:12.711Z,29.67
2018-10-06T16:28:42.206Z,24.73
2018-10-06T16:31:10.452Z,25.67
2018-10-06T16:33:38.784Z,26.10
2018-10-06T16:36:07.050Z,23.33
2018-10-06T16:38:35.326Z,22.00
2018-10-06T16:41:04.316Z,21.27
2018-10-06T16:43:37.104Z,20.20
2018-10-06T16:46:05.501Z,20.43
2018-10-06T16:48:33.877Z,19.43
2018-10-06T16:51:02.373Z,17.33
2018-10-06T16:53:31.337Z,18.53
2018-10-06T16:55:59.704Z,12.27
2018-10-06T16:58:28.054Z,17.70
2018-10-06T17:00:56.394Z,28.90
2018-10-06T17:03:24.654Z,27.47
2018-10-06T17:05:52.947Z,57.97
2018-10-06T17:08:21.168Z,93.03
2018-10-06T17:10:49.426Z,80.87
2018-10-06T17:13:17.851Z,64.03
2018-10-06T17:15:46.122Z,22.57
2018-10-06T17:18:14.433Z,24.53
2018-10-06T17:20:42.845Z,17.00
2018-10-06T17:23:11.174Z,19.90
2018-10-06T17:25:39.462Z,21.63
2018-10-06T17:28:07.817Z,20.67
2018-10-06T17:30:36.174Z,22.47
2018-10-06T17:33:04.507Z,21.80
2018-10-06T17:35:32.969Z,21.17
2018-10-06T17:38:01.254Z,23.40
2018-10-06T17:40:29.613Z,23.40
2018-10-06T17:42:57.991Z,22.37
2018-10-06T17:45:26.452Z,21.07
2018-10-06T17:47:54.762Z,19.63
2018-10-06T17:50:23.216Z,20.37
2018-10-06T17:52:51.509Z,21.37
2018-10-06T17:55:19.823Z,20.20
2018-10-06T17:57:48.250Z,19.10
2018-10-06T18:00:16.576Z,19.97
2018-10-06T18:02:44.973Z,16.47
2018-10-06T18:05:13.545Z,16.23
2018-10-06T18:07:41.829Z,21.10
2018-10-06T18:10:10.193Z,17.13
2018-10-06T18:12:38.620Z,19.40
2018-10-06T18:15:07.170Z,20.00
2018-10-06T18:17:35.900Z,23.47
2018-10-06T18:20:04.493Z,24.03
2018-10-06T18:22:33.413Z,23.27
2018-10-06T18:25:01.794Z,18.13
2018-10-06T18:27:30.237Z,24.47
2018-10-06T18:29:58.534Z,22.30
2018-10-06T18:32:26.832Z,21.57
2018-10-06T18:34:55.180Z,21.23
2018-10-06T18:37:23.809Z,18.07
2018-10-06T18:39:52.150Z,19.00
2018-10-06T18:42:20.543Z,21.60
2018-10-06T18:44:48.944Z,19.37
2018-10-06T18:47:17.328Z,18.13
2018-10-06T18:49:45.718Z,22.33
2018-10-06T18:52:14.092Z,19.93
2018-10-06T18:54:42.477Z,18.43
2018-10-06T18:57:11.007Z,19.60
2018-10-06T18:59:39.434Z,17.57
2018-10-06T19:02:07.779Z,19.47
2018-10-06T19:04:36.219Z,19.30
2018-10-06T19:07:04.530Z,24.70
2018-10-06T19:09:32.888Z,22.20
2018-10-06T19:12:05.517Z,23.03
2018-10-06T19:14:33.850Z,37.80
2018-10-06T19:17:02.201Z,47.43
2018-10-06T19:19:30.569Z,50.47
2018-10-06T19:21:59.001Z,85.60
2018-10-06T19:24:27.266Z,206.00
2018-10-06T19:26:55.650Z,199.40
2018-10-06T19:29:23.975Z,160.20
2018-10-06T19:31:53.493Z,108.90
2018-10-06T19:34:21.890Z,94.40
2018-10-06T19:36:50.234Z,90.63
2018-10-06T19:39:18.579Z,92.73
2018-10-06T19:41:47.051Z,99.60
2018-10-06T19:44:15.423Z,100.87
2018-10-06T19:46:48.298Z,73.47
2018-10-06T19:49:19.790Z,60.87
2018-10-06T19:51:48.158Z,56.33
2018-10-06T19:54:16.658Z,54.90
2018-10-06T19:56:45.020Z,41.97
2018-10-06T19:59:13.335Z,38.07
2018-10-06T20:01:41.745Z,34.03
2018-10-06T20:04:10.166Z,30.37
2018-10-06T20:06:38.594Z,30.80
2018-10-06T20:09:07.849Z,24.70
2018-10-06T20:11:36.563Z,25.73
2018-10-06T20:14:05.009Z,24.13
2018-10-06T20:16:33.420Z,21.03
2018-10-06T20:19:01.898Z,30.93
2018-10-06T20:21:30.283Z,43.67
2018-10-06T20:23:58.619Z,35.00
2018-10-06T20:26:26.947Z,61.47
2018-10-06T20:28:55.334Z,49.57
2018-10-06T20:31:23.709Z,38.73
2018-10-06T20:33:52.177Z,45.40
2018-10-06T20:36:20.619Z,85.50
2018-10-06T20:38:48.886Z,187.57
2018-10-06T20:41:17.176Z,160.80
2018-10-06T20:43:45.475Z,52.93
2018-10-06T20:46:13.840Z,97.53
2018-10-06T20:48:42.071Z,79.77
2018-10-06T20:51:10.414Z,96.67
2018-10-06T20:53:38.676Z,109.63
2018-10-06T20:56:07.116Z,54.93
2018-10-06T20:58:36.513Z,42.73
2018-10-06T21:01:05.295Z,26.50
2018-10-06T21:03:33.658Z,22.97
2018-10-06T21:06:01.925Z,25.90
2018-10-06T21:08:30.333Z,26.37
2018-10-06T21:10:58.589Z,22.60
2018-10-06T21:13:26.832Z,21.00
2018-10-06T21:15:55.136Z,23.90
2018-10-06T21:18:23.390Z,21.80
2018-10-06T21:20:51.594Z,22.77
2018-10-06T21:23:19.863Z,21.83
2018-10-06T21:25:48.044Z,19.47
2018-10-06T21:28:16.322Z,25.67
2018-10-06T21:30:44.665Z,18.73
2018-10-06T21:33:13.819Z,18.80
2018-10-06T21:35:42.114Z,24.97
2018-10-06T21:38:13.413Z,22.17
2018-10-06T21:40:41.590Z,21.17
2018-10-06T21:43:09.776Z,21.20
2018-10-06T21:45:38.064Z,27.67
2018-10-06T21:48:06.319Z,24.90
2018-10-06T21:50:34.791Z,26.73
2018-10-06T21:53:03.427Z,25.00
2018-10-06T21:55:31.638Z,25.00
2018-10-06T21:57:59.870Z,33.33
2018-10-06T22:00:28.120Z,22.60
2018-10-06T22:02:56.334Z,27.77
2018-10-06T22:05:24.701Z,28.70
2018-10-06T22:07:53.055Z,23.87
2018-10-06T22:10:21.300Z,24.47
2018-10-06T22:12:49.502Z,35.77
2018-10-06T22:15:17.859Z,33.70
2018-10-06T22:17:46.020Z,82.60
2018-10-06T22:20:14.256Z,168.60
2018-10-06T22:22:42.509Z,119.87
2018-10-06T22:25:10.746Z,81.53
2018-10-06T22:27:38.977Z,82.43
2018-10-06T22:30:07.441Z,49.23
2018-10-06T22:32:35.728Z,71.40
2018-10-06T22:35:03.919Z,70.53
2018-10-06T22:37:32.504Z,55.07
2018-10-06T22:40:00.680Z,35.03
2018-10-06T22:42:28.905Z,28.37
2018-10-06T22:44:57.186Z,36.40
2018-10-06T22:47:25.410Z,71.13
2018-10-06T22:49:53.632Z,95.03
2018-10-06T22:52:21.914Z,133.97
2018-10-06T22:54:50.130Z,91.87
2018-10-06T22:57:18.356Z,50.47
2018-10-06T22:59:46.731Z,33.67
2018-10-06T23:02:14.947Z,47.90
2018-10-06T23:04:43.161Z,43.50
2018-10-06T23:07:11.426Z,27.40
2018-10-06T23:09:39.649Z,38.43
2018-10-06T23:12:07.867Z,34.40
2018-10-06T23:14:36.109Z,69.23
2018-10-06T23:17:04.351Z,133.73
2018-10-06T23:19:32.543Z,160.17
2018-10-06T23:22:00.827Z,238.27
2018-10-06T23:24:29.011Z,202.27
2018-10-06T23:26:57.324Z,344.77
2018-10-06T23:29:25.639Z,265.77
2018-10-06T23:31:53.855Z,346.63
2018-10-06T23:34:22.090Z,298.60
2018-10-06T23:36:50.541Z,288.90
2018-10-06T23:39:18.885Z,277.57
2018-10-06T23:41:47.113Z,220.57
2018-10-06T23:44:15.433Z,200.63
2018-10-06T23:46:43.753Z,115.50
2018-10-06T23:49:12.093Z,70.77
2018-10-06T23:51:40.447Z,23.80
2018-10-06T23:54:08.903Z,27.13
2018-10-06T23:56:37.205Z,59.43
2018-10-06T23:59:05.570Z,26.27
